createdAt,value
2017-05-03T00:00:14.734Z,11.08
2017-05-03T00:00:56.111Z,10.97
2017-05-03T00:01:37.139Z,10.96
2017-05-03T00:02:18.073Z,10.9
2017-05-03T00:02:58.715Z,11.07
2017-05-03T00:03:39.556Z,11.04
2017-05-03T00:04:20.468Z,10.94
2017-05-03T00:05:01.095Z,10.92
2017-05-03T00:05:41.847Z,11.05
2017-05-03T00:06:22.766Z,11.05
2017-05-03T00:07:03.521Z,10.97
2017-05-03T00:07:44.327Z,10.97
2017-05-03T00:08:25.289Z,10.94
2017-05-03T00:09:05.878Z,11.05
2017-05-03T00:09:46.461Z,11.1
2017-05-03T00:10:27.033Z,10.93
2017-05-03T00:11:07.598Z,11
2017-05-03T00:11:48.175Z,10.96
2017-05-03T00:12:28.745Z,11.08
2017-05-03T00:13:09.311Z,10.99
2017-05-03T00:13:49.891Z,11.07
2017-05-03T00:14:30.472Z,10.96
2017-05-03T00:15:11.044Z,10.99
2017-05-03T00:15:51.660Z,10.97
2017-05-03T00:16:32.239Z,11.04
2017-05-03T00:17:12.802Z,10.97
2017-05-03T00:17:53.422Z,10.96
2017-05-03T00:18:34.006Z,10.9
2017-05-03T00:19:14.602Z,11.02
2017-05-03T00:19:55.178Z,10.9
2017-05-03T00:20:35.750Z,10.93
2017-05-03T00:21:16.345Z,11.04
2017-05-03T00:21:56.946Z,10.94
2017-05-03T00:22:37.572Z,10.99
2017-05-03T00:23:18.159Z,10.94
2017-05-03T00:23:58.754Z,11
2017-05-03T00:24:39.330Z,10.94
2017-05-03T00:25:19.934Z,10.97
2017-05-03T00:26:00.504Z,10.92
2017-05-03T00:26:41.082Z,10.9
2017-05-03T00:27:21.677Z,10.97
2017-05-03T00:28:02.264Z,10.89
2017-05-03T00:28:42.841Z,10.94
2017-05-03T00:29:23.431Z,10.94
2017-05-03T00:30:04.014Z,10.94
2017-05-03T00:30:44.610Z,10.99
2017-05-03T00:31:25.227Z,11
2017-05-03T00:32:05.810Z,11
2017-05-03T00:32:46.387Z,10.93
2017-05-03T00:33:27.003Z,11.02
2017-05-03T00:34:07.598Z,10.96
2017-05-03T00:34:48.181Z,10.87
2017-05-03T00:35:28.760Z,10.87
2017-05-03T00:36:09.337Z,10.92
2017-05-03T00:36:49.905Z,10.92
2017-05-03T00:37:30.510Z,10.87
2017-05-03T00:38:11.080Z,10.9
2017-05-03T00:38:51.661Z,10.87
2017-05-03T00:39:32.266Z,10.96
2017-05-03T00:40:12.851Z,10.94
2017-05-03T00:40:53.419Z,10.94
2017-05-03T00:41:34.012Z,10.97
2017-05-03T00:42:14.586Z,10.89
2017-05-03T00:42:55.182Z,10.87
2017-05-03T00:43:35.757Z,10.87
2017-05-03T00:44:16.333Z,10.9
2017-05-03T00:44:56.930Z,10.86
2017-05-03T00:45:37.501Z,10.89
2017-05-03T00:46:18.068Z,10.87
2017-05-03T00:46:58.644Z,10.86
2017-05-03T00:47:39.234Z,10.82
2017-05-03T00:48:19.824Z,10.87
2017-05-03T00:49:00.404Z,10.84
2017-05-03T00:49:40.963Z,10.86
2017-05-03T00:50:21.549Z,10.87
2017-05-03T00:51:02.142Z,10.86
2017-05-03T00:51:42.714Z,10.84
2017-05-03T00:52:23.303Z,10.84
2017-05-03T00:53:03.878Z,10.84
2017-05-03T00:53:44.468Z,10.87
2017-05-03T00:54:26.065Z,10.79
2017-05-03T00:55:06.653Z,10.82
2017-05-03T00:55:47.256Z,10.84
2017-05-03T00:56:27.850Z,10.87
2017-05-03T00:57:08.437Z,10.87
2017-05-03T00:57:49.041Z,10.89
2017-05-03T00:58:29.632Z,10.84
2017-05-03T00:59:10.209Z,10.89
2017-05-03T00:59:50.799Z,10.82
2017-05-03T01:00:31.415Z,10.87
2017-05-03T01:01:12.014Z,10.89
2017-05-03T01:01:52.593Z,10.9
2017-05-03T01:02:33.171Z,10.92
2017-05-03T01:03:13.827Z,10.9
2017-05-03T01:03:54.411Z,10.99
2017-05-03T01:04:34.998Z,10.92
2017-05-03T01:05:15.590Z,10.9
2017-05-03T01:05:56.167Z,11.04
2017-05-03T01:06:36.756Z,10.93
2017-05-03T01:07:17.395Z,11
2017-05-03T01:07:57.989Z,10.97
2017-05-03T01:08:38.582Z,11
2017-05-03T01:09:19.165Z,10.93
2017-05-03T01:09:59.749Z,10.99
2017-05-03T01:10:40.332Z,10.99
2017-05-03T01:11:20.922Z,10.92
2017-05-03T01:12:01.510Z,10.99
2017-05-03T01:12:42.117Z,10.99
2017-05-03T01:13:22.705Z,10.93
2017-05-03T01:14:03.325Z,10.94
2017-05-03T01:14:43.921Z,10.96
2017-05-03T01:15:24.540Z,10.93
2017-05-03T01:16:05.116Z,10.9
2017-05-03T01:16:45.699Z,11.04
2017-05-03T01:17:26.290Z,11
2017-05-03T01:18:06.872Z,11
2017-05-03T01:18:47.480Z,11.08
2017-05-03T01:19:28.073Z,11.02
2017-05-03T01:20:08.649Z,11.05
2017-05-03T01:20:49.224Z,11.08
2017-05-03T01:21:29.831Z,11.07
2017-05-03T01:22:10.510Z,11.08
2017-05-03T01:22:51.112Z,11.12
2017-05-03T01:23:31.688Z,11.05
2017-05-03T01:24:12.357Z,11.07
2017-05-03T01:24:52.875Z,11.05
2017-05-03T01:25:33.466Z,11.08
2017-05-03T01:26:14.054Z,11.1
2017-05-03T01:26:54.659Z,11.12
2017-05-03T01:27:35.246Z,11.14
2017-05-03T01:28:15.859Z,11.12
2017-05-03T01:28:56.413Z,11.15
2017-05-03T01:29:36.981Z,11.11
2017-05-03T01:30:17.551Z,11.12
2017-05-03T01:30:58.146Z,11.07
2017-05-03T01:31:38.784Z,11.07
2017-05-03T01:32:19.382Z,11.07
2017-05-03T01:32:59.962Z,11.12
2017-05-03T01:33:40.581Z,11.07
2017-05-03T01:34:21.170Z,11.05
2017-05-03T01:35:01.782Z,11.02
2017-05-03T01:35:42.374Z,11.02
2017-05-03T01:36:22.957Z,11.12
2017-05-03T01:37:03.585Z,11.04
2017-05-03T01:37:44.186Z,11.08
2017-05-03T01:38:24.777Z,11.19
2017-05-03T01:39:05.379Z,11.17
2017-05-03T01:39:45.943Z,11.15
2017-05-03T01:40:26.523Z,11.14
2017-05-03T01:41:07.110Z,11.17
2017-05-03T01:41:47.709Z,11.15
2017-05-03T01:42:28.314Z,11.18
2017-05-03T01:43:08.930Z,11.23
2017-05-03T01:43:49.565Z,11.18
2017-05-03T01:44:30.159Z,11.22
2017-05-03T01:45:10.770Z,11.12
2017-05-03T01:45:51.366Z,11.23
2017-05-03T01:46:31.979Z,11.14
2017-05-03T01:47:12.597Z,11.11
2017-05-03T01:47:53.190Z,11.17
2017-05-03T01:48:33.800Z,11.12
2017-05-03T01:49:14.386Z,11.12
2017-05-03T01:49:54.996Z,11.15
2017-05-03T01:50:35.586Z,11.07
2017-05-03T01:51:16.192Z,11.1
2017-05-03T01:51:56.800Z,11.14
2017-05-03T01:52:37.388Z,11.1
2017-05-03T01:53:18.004Z,11.17
2017-05-03T01:53:58.590Z,11.04
2017-05-03T01:54:39.185Z,11.17
2017-05-03T01:55:19.754Z,11.12
2017-05-03T01:56:00.343Z,11.12
2017-05-03T01:56:40.937Z,11.22
2017-05-03T01:57:21.530Z,11.15
2017-05-03T01:58:02.166Z,11.12
2017-05-03T01:58:42.776Z,11.11
2017-05-03T01:59:23.354Z,11.22
2017-05-03T02:00:03.997Z,11.15
2017-05-03T02:00:44.573Z,11.14
2017-05-03T02:01:25.164Z,11.08
2017-05-03T02:02:05.755Z,11.17
2017-05-03T02:02:46.334Z,11.17
2017-05-03T02:03:26.922Z,11.18
2017-05-03T02:04:07.496Z,11.11
2017-05-03T02:04:48.081Z,11.1
2017-05-03T02:05:28.676Z,11.05
2017-05-03T02:06:09.289Z,11.07
2017-05-03T02:06:49.858Z,11.14
2017-05-03T02:07:30.434Z,11.07
2017-05-03T02:08:11.050Z,11.07
2017-05-03T02:08:51.644Z,11.08
2017-05-03T02:09:32.239Z,11.07
2017-05-03T02:10:12.855Z,11.1
2017-05-03T02:10:53.440Z,11.12
2017-05-03T02:11:34.047Z,11.18
2017-05-03T02:12:14.659Z,11.15
2017-05-03T02:12:55.231Z,11.08
2017-05-03T02:13:35.805Z,11.1
2017-05-03T02:14:16.421Z,11.1
2017-05-03T02:14:56.985Z,11.1
2017-05-03T02:15:37.567Z,11.05
2017-05-03T02:16:18.168Z,11.05
2017-05-03T02:16:58.735Z,11.14
2017-05-03T02:17:39.350Z,11.14
2017-05-03T02:18:19.927Z,11.11
2017-05-03T02:19:00.520Z,11.07
2017-05-03T02:19:41.148Z,11.12
2017-05-03T02:20:21.761Z,11.08
2017-05-03T02:21:02.342Z,11.11
2017-05-03T02:21:42.909Z,11.17
2017-05-03T02:22:23.503Z,11.18
2017-05-03T02:23:04.094Z,11.14
2017-05-03T02:23:44.686Z,11.11
2017-05-03T02:24:25.308Z,11.22
2017-05-03T02:25:05.958Z,11.19
2017-05-03T02:25:46.546Z,11.22
2017-05-03T02:26:27.135Z,11.18
2017-05-03T02:27:07.708Z,11.23
2017-05-03T02:27:48.300Z,11.19
2017-05-03T02:28:28.916Z,11.17
2017-05-03T02:29:09.494Z,11.18
2017-05-03T02:29:50.055Z,11.18
2017-05-03T02:30:30.642Z,11.08
2017-05-03T02:31:11.231Z,11.17
2017-05-03T02:31:51.815Z,11.11
2017-05-03T02:32:32.438Z,11.17
2017-05-03T02:33:13.020Z,11.11
2017-05-03T02:33:53.603Z,11.14
2017-05-03T02:34:34.196Z,11.08
2017-05-03T02:35:14.774Z,11.18
2017-05-03T02:35:55.360Z,11.11
2017-05-03T02:36:35.941Z,11.18
2017-05-03T02:37:16.532Z,11.15
2017-05-03T02:37:57.110Z,11.14
2017-05-03T02:38:37.715Z,11.11
2017-05-03T02:39:18.294Z,11.14
2017-05-03T02:39:58.920Z,11.14
2017-05-03T02:40:39.510Z,11.18
2017-05-03T02:41:20.100Z,11.11
2017-05-03T02:42:00.680Z,11.15
2017-05-03T02:42:41.249Z,11.08
2017-05-03T02:43:21.863Z,11.15
2017-05-03T02:44:02.454Z,11.18
2017-05-03T02:44:43.041Z,11.12
2017-05-03T02:45:23.618Z,11.08
2017-05-03T02:46:04.206Z,11.1
2017-05-03T02:46:44.785Z,11.04
2017-05-03T02:47:25.365Z,11.1
2017-05-03T02:48:05.960Z,11.07
2017-05-03T02:48:46.547Z,11.1
2017-05-03T02:49:27.129Z,11.07
2017-05-03T02:50:07.712Z,11.07
2017-05-03T02:50:48.333Z,11.1
2017-05-03T02:51:28.945Z,11.1
2017-05-03T02:52:09.515Z,11.07
2017-05-03T02:52:50.092Z,11.07
2017-05-03T02:53:30.675Z,11.08
2017-05-03T02:54:11.271Z,11.07
2017-05-03T02:54:51.845Z,11.07
2017-05-03T02:55:32.440Z,11.04
2017-05-03T02:56:13.054Z,11.1
2017-05-03T02:56:53.635Z,11.07
2017-05-03T02:57:34.209Z,11.07
2017-05-03T02:58:14.810Z,11.05
2017-05-03T02:58:55.410Z,11.05
2017-05-03T02:59:36.027Z,10.99
2017-05-03T03:00:16.606Z,10.99
2017-05-03T03:00:57.228Z,11
2017-05-03T03:01:37.814Z,10.9
2017-05-03T03:02:18.401Z,10.99
2017-05-03T03:02:58.997Z,10.93
2017-05-03T03:03:39.574Z,10.9
2017-05-03T03:04:20.194Z,10.93
2017-05-03T03:05:00.796Z,10.92
2017-05-03T03:05:41.369Z,11.04
2017-05-03T03:06:21.953Z,10.93
2017-05-03T03:07:02.534Z,10.97
2017-05-03T03:07:43.107Z,10.92
2017-05-03T03:08:23.691Z,10.99
2017-05-03T03:09:04.309Z,11
2017-05-03T03:09:44.895Z,10.99
2017-05-03T03:10:25.469Z,10.94
2017-05-03T03:11:06.308Z,10.9
2017-05-03T03:11:46.865Z,10.96
2017-05-03T03:12:27.483Z,10.89
2017-05-03T03:13:08.063Z,10.92
2017-05-03T03:13:48.656Z,10.93
2017-05-03T03:14:29.228Z,10.93
2017-05-03T03:15:09.796Z,10.86
2017-05-03T03:15:50.389Z,10.87
2017-05-03T03:16:30.978Z,10.93
2017-05-03T03:17:11.650Z,10.84
2017-05-03T03:17:52.238Z,10.84
2017-05-03T03:18:32.807Z,10.92
2017-05-03T03:19:13.392Z,10.9
2017-05-03T03:19:53.992Z,10.86
2017-05-03T03:20:34.587Z,10.87
2017-05-03T03:21:15.175Z,10.87
2017-05-03T03:21:55.743Z,10.89
2017-05-03T03:22:36.338Z,10.87
2017-05-03T03:23:16.903Z,10.86
2017-05-03T03:23:57.497Z,10.87
2017-05-03T03:24:38.100Z,10.87
2017-05-03T03:25:18.667Z,10.89
2017-05-03T03:25:59.260Z,10.84
2017-05-03T03:26:39.836Z,10.86
2017-05-03T03:27:20.415Z,10.82
2017-05-03T03:28:00.983Z,10.81
2017-05-03T03:28:41.608Z,10.79
2017-05-03T03:29:22.214Z,10.87
2017-05-03T03:30:02.809Z,10.87
2017-05-03T03:30:43.379Z,10.89
2017-05-03T03:31:23.947Z,10.79
2017-05-03T03:32:04.530Z,10.79
2017-05-03T03:32:45.114Z,10.82
2017-05-03T03:33:25.699Z,10.79
2017-05-03T03:34:06.306Z,10.89
2017-05-03T03:34:46.874Z,10.79
2017-05-03T03:35:27.444Z,10.87
2017-05-03T03:36:08.078Z,10.81
2017-05-03T03:36:48.728Z,10.79
2017-05-03T03:37:29.319Z,10.79
2017-05-03T03:38:09.897Z,10.84
2017-05-03T03:38:50.496Z,10.86
2017-05-03T03:39:31.134Z,10.82
2017-05-03T03:40:11.728Z,10.78
2017-05-03T03:40:52.306Z,10.78
2017-05-03T03:41:32.893Z,10.76
2017-05-03T03:42:13.468Z,10.82
2017-05-03T03:42:54.064Z,10.76
2017-05-03T03:43:34.654Z,10.74
2017-05-03T03:44:15.270Z,10.74
2017-05-03T03:44:55.842Z,10.87
2017-05-03T03:45:36.443Z,10.74
2017-05-03T03:46:17.045Z,10.78
2017-05-03T03:46:57.638Z,10.72
2017-05-03T03:47:38.250Z,10.79
2017-05-03T03:48:18.821Z,10.76
2017-05-03T03:48:59.408Z,10.75
2017-05-03T03:49:40.056Z,10.71
2017-05-03T03:50:20.656Z,10.74
2017-05-03T03:51:01.230Z,10.76
2017-05-03T03:51:41.815Z,10.78
2017-05-03T03:52:22.395Z,10.69
2017-05-03T03:53:02.989Z,10.71
2017-05-03T03:53:43.604Z,10.69
2017-05-03T03:54:24.197Z,10.76
2017-05-03T03:55:04.809Z,10.68
2017-05-03T03:55:45.397Z,10.67
2017-05-03T03:56:26.005Z,10.68
2017-05-03T03:57:06.593Z,10.72
2017-05-03T03:57:47.190Z,10.63
2017-05-03T03:58:27.799Z,10.67
2017-05-03T03:59:08.367Z,10.63
2017-05-03T03:59:48.980Z,10.59
2017-05-03T04:00:29.568Z,10.64
2017-05-03T04:01:10.174Z,10.56
2017-05-03T04:01:50.761Z,10.61
2017-05-03T04:02:31.320Z,10.63
2017-05-03T04:03:11.910Z,10.67
2017-05-03T04:03:52.535Z,10.54
2017-05-03T04:04:33.147Z,10.54
2017-05-03T04:05:13.765Z,10.49
2017-05-03T04:05:56.157Z,10.59
2017-05-03T04:06:36.761Z,10.57
2017-05-03T04:07:17.333Z,10.49
2017-05-03T04:07:57.958Z,10.48
2017-05-03T04:08:38.597Z,10.49
2017-05-03T04:09:19.163Z,10.46
2017-05-03T04:09:59.744Z,10.44
2017-05-03T04:10:40.314Z,10.41
2017-05-03T04:11:20.905Z,10.46
2017-05-03T04:12:01.495Z,10.48
2017-05-03T04:12:42.088Z,10.44
2017-05-03T04:13:22.671Z,10.46
2017-05-03T04:14:03.271Z,10.48
2017-05-03T04:14:43.840Z,10.46
2017-05-03T04:15:24.433Z,10.44
2017-05-03T04:16:04.991Z,10.46
2017-05-03T04:16:45.581Z,10.48
2017-05-03T04:17:26.219Z,10.49
2017-05-03T04:18:06.832Z,10.49
2017-05-03T04:18:47.440Z,10.37
2017-05-03T04:19:28.043Z,10.46
2017-05-03T04:20:08.649Z,10.37
2017-05-03T04:20:49.244Z,10.44
2017-05-03T04:21:29.861Z,10.35
2017-05-03T04:22:10.460Z,10.38
2017-05-03T04:22:51.055Z,10.51
2017-05-03T04:23:31.657Z,10.46
2017-05-03T04:24:12.240Z,10.56
2017-05-03T04:24:52.866Z,10.44
2017-05-03T04:25:33.461Z,10.42
2017-05-03T04:26:14.058Z,10.44
2017-05-03T04:26:54.721Z,10.37
2017-05-03T04:27:35.302Z,10.49
2017-05-03T04:28:15.889Z,10.46
2017-05-03T04:28:56.470Z,10.44
2017-05-03T04:29:37.111Z,10.44
2017-05-03T04:30:17.696Z,10.38
2017-05-03T04:30:58.275Z,10.4
2017-05-03T04:31:38.885Z,10.44
2017-05-03T04:32:19.448Z,10.49
2017-05-03T04:33:00.022Z,10.49
2017-05-03T04:33:40.615Z,10.48
2017-05-03T04:34:21.189Z,10.46
2017-05-03T04:35:01.771Z,10.4
2017-05-03T04:35:42.410Z,10.42
2017-05-03T04:36:22.978Z,10.48
2017-05-03T04:37:03.571Z,10.51
2017-05-03T04:37:44.170Z,10.41
2017-05-03T04:38:24.751Z,10.57
2017-05-03T04:39:05.328Z,10.53
2017-05-03T04:39:45.920Z,10.57
2017-05-03T04:40:26.508Z,10.56
2017-05-03T04:41:07.101Z,10.53
2017-05-03T04:41:47.657Z,10.57
2017-05-03T04:42:28.231Z,10.4
2017-05-03T04:43:08.797Z,10.54
2017-05-03T04:43:49.455Z,10.42
2017-05-03T04:44:30.082Z,10.44
2017-05-03T04:45:10.641Z,10.42
2017-05-03T04:45:51.242Z,10.44
2017-05-03T04:46:31.830Z,10.4
2017-05-03T04:47:12.407Z,10.38
2017-05-03T04:47:53.025Z,10.34
2017-05-03T04:48:33.627Z,10.44
2017-05-03T04:49:14.204Z,10.4
2017-05-03T04:49:54.794Z,10.37
2017-05-03T04:50:35.372Z,10.34
2017-05-03T04:51:15.987Z,10.41
2017-05-03T04:51:56.596Z,10.4
2017-05-03T04:52:37.170Z,10.4
2017-05-03T04:53:17.745Z,10.34
2017-05-03T04:53:58.377Z,10.41
2017-05-03T04:54:38.952Z,10.34
2017-05-03T04:55:19.618Z,10.22
2017-05-03T04:56:00.206Z,10.31
2017-05-03T04:56:40.807Z,10.25
2017-05-03T04:57:21.412Z,10.31
2017-05-03T04:58:01.982Z,10.37
2017-05-03T04:58:42.568Z,10.33
2017-05-03T04:59:23.224Z,10.34
2017-05-03T05:00:03.813Z,10.31
2017-05-03T05:00:44.418Z,10.31
2017-05-03T05:01:25.029Z,10.37
2017-05-03T05:02:05.606Z,10.3
2017-05-03T05:02:46.189Z,10.33
2017-05-03T05:03:26.766Z,10.33
2017-05-03T05:04:07.389Z,10.3
2017-05-03T05:04:47.944Z,10.33
2017-05-03T05:05:28.548Z,10.38
2017-05-03T05:06:09.180Z,10.34
2017-05-03T05:06:49.773Z,10.26
2017-05-03T05:07:30.357Z,10.35
2017-05-03T05:08:10.962Z,10.33
2017-05-03T05:08:51.556Z,10.4
2017-05-03T05:09:32.145Z,10.42
2017-05-03T05:10:12.755Z,10.37
2017-05-03T05:10:53.350Z,10.33
2017-05-03T05:11:33.973Z,10.37
2017-05-03T05:12:14.585Z,10.34
2017-05-03T05:12:55.155Z,10.42
2017-05-03T05:13:35.760Z,10.38
2017-05-03T05:14:16.357Z,10.42
2017-05-03T05:14:57.749Z,10.42
2017-05-03T05:15:38.371Z,10.44
2017-05-03T05:16:18.967Z,10.48
2017-05-03T05:17:00.050Z,10.46
2017-05-03T05:17:40.695Z,10.42
2017-05-03T05:18:21.412Z,10.49
2017-05-03T05:19:01.994Z,10.46
2017-05-03T05:19:42.567Z,10.49
2017-05-03T05:20:23.159Z,10.48
2017-05-03T05:21:03.744Z,10.37
2017-05-03T05:21:44.353Z,10.42
2017-05-03T05:22:24.980Z,10.41
2017-05-03T05:23:05.552Z,10.34
2017-05-03T05:23:46.201Z,10.44
2017-05-03T05:24:26.801Z,10.4
2017-05-03T05:25:07.374Z,10.34
2017-05-03T05:25:48.025Z,10.33
2017-05-03T05:26:28.590Z,10.34
2017-05-03T05:27:09.196Z,10.34
2017-05-03T05:27:49.792Z,10.23
2017-05-03T05:28:30.386Z,10.35
2017-05-03T05:29:11.166Z,10.33
2017-05-03T05:29:51.776Z,10.26
2017-05-03T05:30:32.375Z,10.34
2017-05-03T05:31:13.005Z,10.37
2017-05-03T05:31:53.590Z,10.33
2017-05-03T05:32:34.221Z,10.25
2017-05-03T05:33:14.838Z,10.37
2017-05-03T05:33:55.443Z,10.37
2017-05-03T05:34:36.033Z,10.4
2017-05-03T05:35:16.631Z,10.4
2017-05-03T05:35:57.288Z,10.37
2017-05-03T05:36:37.864Z,10.31
2017-05-03T05:37:18.450Z,10.25
2017-05-03T05:37:59.023Z,10.38
2017-05-03T05:38:39.594Z,10.25
2017-05-03T05:39:20.188Z,10.22
2017-05-03T05:40:00.776Z,10.31
2017-05-03T05:40:41.465Z,10.33
2017-05-03T05:41:22.049Z,10.28
2017-05-03T05:42:02.742Z,10.34
2017-05-03T05:42:43.314Z,10.31
2017-05-03T05:43:23.905Z,10.33
2017-05-03T05:44:04.492Z,10.35
2017-05-03T05:44:45.093Z,10.42
2017-05-03T05:45:25.657Z,10.33
2017-05-03T05:46:06.231Z,10.34
2017-05-03T05:46:46.865Z,10.31
2017-05-03T05:47:27.432Z,10.26
2017-05-03T05:48:08.010Z,10.3
2017-05-03T05:48:48.605Z,10.31
2017-05-03T05:49:29.186Z,10.34
2017-05-03T05:50:09.784Z,10.33
2017-05-03T05:50:50.377Z,10.28
2017-05-03T05:51:30.943Z,10.3
2017-05-03T05:52:11.544Z,10.3
2017-05-03T05:52:52.197Z,10.38
2017-05-03T05:53:32.768Z,10.3
2017-05-03T05:54:13.350Z,10.34
2017-05-03T05:54:53.954Z,10.46
2017-05-03T05:55:34.547Z,10.56
2017-05-03T05:56:15.136Z,10.71
2017-05-03T05:56:55.765Z,10.97
2017-05-03T05:57:36.341Z,11.11
2017-05-03T05:58:16.924Z,11.36
2017-05-03T05:58:57.509Z,11.62
2017-05-03T05:59:38.095Z,11.68
2017-05-03T06:00:18.680Z,11.69
2017-05-03T06:00:59.263Z,11.83
2017-05-03T06:01:39.844Z,11.95
2017-05-03T06:02:20.440Z,11.9
2017-05-03T06:03:01.041Z,12.04
2017-05-03T06:03:41.634Z,11.99
2017-05-03T06:04:22.240Z,11.94
2017-05-03T06:05:02.816Z,12.18
2017-05-03T06:05:43.415Z,12.17
2017-05-03T06:06:24.013Z,12.22
2017-05-03T06:07:04.616Z,12.36
2017-05-03T06:07:45.223Z,12.29
2017-05-03T06:08:25.801Z,12.37
2017-05-03T06:09:06.400Z,12.47
2017-05-03T06:09:46.979Z,12.4
2017-05-03T06:10:27.568Z,12.45
2017-05-03T06:11:08.162Z,12.43
2017-05-03T06:11:48.760Z,12.5
2017-05-03T06:12:29.335Z,12.55
2017-05-03T06:13:09.908Z,12.55
2017-05-03T06:13:50.486Z,12.55
2017-05-03T06:14:31.070Z,12.64
2017-05-03T06:15:11.722Z,12.68
2017-05-03T06:15:52.324Z,12.76
2017-05-03T06:16:32.968Z,12.75
2017-05-03T06:17:13.554Z,12.75
2017-05-03T06:17:54.143Z,12.72
2017-05-03T06:18:34.756Z,12.55
2017-05-03T06:19:15.377Z,12.55
2017-05-03T06:19:55.963Z,12.5
2017-05-03T06:20:36.541Z,12.37
2017-05-03T06:21:17.139Z,12.35
2017-05-03T06:21:57.742Z,12.27
2017-05-03T06:22:38.328Z,12.4
2017-05-03T06:23:18.938Z,12.45
2017-05-03T06:23:59.545Z,12.49
2017-05-03T06:24:40.181Z,12.54
2017-05-03T06:25:20.748Z,12.55
2017-05-03T06:26:01.334Z,12.67
2017-05-03T06:26:41.919Z,12.65
2017-05-03T06:27:22.512Z,12.79
2017-05-03T06:28:03.124Z,12.76
2017-05-03T06:28:43.737Z,12.86
2017-05-03T06:29:24.322Z,12.8
2017-05-03T06:30:04.921Z,12.8
2017-05-03T06:30:45.508Z,12.79
2017-05-03T06:31:26.112Z,12.85
2017-05-03T06:32:06.711Z,12.72
2017-05-03T06:32:47.359Z,12.72
2017-05-03T06:33:27.952Z,12.58
2017-05-03T06:34:08.526Z,12.67
2017-05-03T06:34:49.117Z,12.64
2017-05-03T06:35:29.699Z,12.65
2017-05-03T06:36:10.282Z,12.58
2017-05-03T06:36:50.900Z,12.46
2017-05-03T06:37:31.493Z,12.45
2017-05-03T06:38:12.107Z,12.22
2017-05-03T06:38:52.689Z,12.13
2017-05-03T06:39:33.378Z,12.1
2017-05-03T06:40:13.964Z,11.95
2017-05-03T06:40:54.555Z,11.77
2017-05-03T06:41:35.145Z,11.68
2017-05-03T06:42:15.724Z,11.63
2017-05-03T06:42:56.347Z,11.63
2017-05-03T06:43:36.927Z,11.63
2017-05-03T06:44:17.534Z,11.68
2017-05-03T06:44:58.182Z,11.6
2017-05-03T06:45:38.809Z,11.51
2017-05-03T06:46:19.414Z,11.44
2017-05-03T06:47:00.015Z,11.48
2017-05-03T06:47:40.629Z,11.33
2017-05-03T06:48:21.232Z,11.41
2017-05-03T06:49:01.820Z,11.43
2017-05-03T06:49:42.407Z,11.41
2017-05-03T06:50:23.011Z,11.35
2017-05-03T06:51:03.680Z,11.33
2017-05-03T06:51:44.297Z,11.35
2017-05-03T06:52:24.888Z,11.32
2017-05-03T06:53:05.527Z,11.29
2017-05-03T06:53:46.150Z,11.19
2017-05-03T06:54:28.870Z,11.26
2017-05-03T06:55:23.527Z,11.22
2017-05-03T06:56:06.731Z,11.12
2017-05-03T06:56:47.391Z,11.22
2017-05-03T06:57:27.984Z,11.14
2017-05-03T06:58:08.577Z,11.11
2017-05-03T06:58:49.165Z,11.17
2017-05-03T06:59:29.750Z,11.1
2017-05-03T07:00:10.330Z,11.1
2017-05-03T07:00:50.913Z,11.02
2017-05-03T07:01:31.485Z,11.05
2017-05-03T07:02:12.055Z,10.97
2017-05-03T07:02:52.636Z,11.05
2017-05-03T07:03:33.247Z,11.04
2017-05-03T07:04:13.823Z,11.02
2017-05-03T07:04:54.443Z,11.07
2017-05-03T07:05:35.018Z,11.02
2017-05-03T07:06:15.600Z,11.07
2017-05-03T07:06:56.168Z,10.96
2017-05-03T07:07:36.761Z,11.07
2017-05-03T07:08:17.375Z,10.99
2017-05-03T07:08:57.945Z,11.05
2017-05-03T07:09:38.567Z,11.02
2017-05-03T07:10:19.174Z,11.02
2017-05-03T07:10:59.947Z,11.05
2017-05-03T07:11:40.553Z,11.04
2017-05-03T07:12:21.176Z,11.05
2017-05-03T07:13:01.773Z,11.02
2017-05-03T07:13:42.355Z,11.08
2017-05-03T07:14:22.932Z,11.07
2017-05-03T07:15:03.571Z,11.05
2017-05-03T07:15:44.142Z,11.05
2017-05-03T07:16:24.765Z,11
2017-05-03T07:17:05.416Z,11.05
2017-05-03T07:17:45.998Z,11.02
2017-05-03T07:18:26.614Z,11
2017-05-03T07:19:07.199Z,11.02
2017-05-03T07:19:47.799Z,11.1
2017-05-03T07:20:28.384Z,11.08
2017-05-03T07:21:08.963Z,11.05
2017-05-03T07:21:49.560Z,11.07
2017-05-03T07:22:30.147Z,11.15
2017-05-03T07:23:10.789Z,11.14
2017-05-03T07:23:51.386Z,11.08
2017-05-03T07:24:31.979Z,11.12
2017-05-03T07:25:12.576Z,11.19
2017-05-03T07:25:53.152Z,11.26
2017-05-03T07:26:33.725Z,11.23
2017-05-03T07:27:14.337Z,11.26
2017-05-03T07:27:54.941Z,11.22
2017-05-03T07:28:35.570Z,11.27
2017-05-03T07:29:16.188Z,11.23
2017-05-03T07:29:56.811Z,11.22
2017-05-03T07:30:37.437Z,11.26
2017-05-03T07:31:18.014Z,11.26
2017-05-03T07:31:58.597Z,11.23
2017-05-03T07:32:39.281Z,11.26
2017-05-03T07:33:20.256Z,11.26
2017-05-03T07:34:02.008Z,11.27
2017-05-03T07:34:42.914Z,11.25
2017-05-03T07:35:23.747Z,11.25
2017-05-03T07:36:04.316Z,11.27
2017-05-03T07:36:44.898Z,11.26
2017-05-03T07:37:25.483Z,11.35
2017-05-03T07:38:06.150Z,11.35
2017-05-03T07:38:46.753Z,11.36
2017-05-03T07:39:27.394Z,11.41
2017-05-03T07:40:07.997Z,11.44
2017-05-03T07:40:48.625Z,11.35
2017-05-03T07:41:29.205Z,11.43
2017-05-03T07:42:09.813Z,11.35
2017-05-03T07:42:50.410Z,11.51
2017-05-03T07:43:30.981Z,11.51
2017-05-03T07:44:11.571Z,11.48
2017-05-03T07:44:52.160Z,11.52
2017-05-03T07:45:32.734Z,11.51
2017-05-03T07:46:13.469Z,11.5
2017-05-03T07:46:54.117Z,11.47
2017-05-03T07:47:34.710Z,11.36
2017-05-03T07:48:15.319Z,11.48
2017-05-03T07:48:56.080Z,11.48
2017-05-03T07:50:33.950Z,11.48
2017-05-03T07:51:14.532Z,11.52
2017-05-03T07:51:55.110Z,11.57
2017-05-03T07:52:35.690Z,11.59
2017-05-03T07:53:16.338Z,11.51
2017-05-03T07:53:56.941Z,11.51
2017-05-03T07:54:37.521Z,11.62
2017-05-03T07:55:18.136Z,11.6
2017-05-03T07:55:58.730Z,11.62
2017-05-03T07:56:39.316Z,11.57
2017-05-03T07:57:19.955Z,11.62
2017-05-03T07:58:00.542Z,11.68
2017-05-03T07:58:41.250Z,11.63
2017-05-03T07:59:21.831Z,11.62
2017-05-03T08:00:02.416Z,11.65
2017-05-03T08:00:43.004Z,11.65
2017-05-03T08:01:23.592Z,11.72
2017-05-03T08:02:04.162Z,11.69
2017-05-03T08:02:44.725Z,11.66
2017-05-03T08:03:25.293Z,11.69
2017-05-03T08:04:05.911Z,11.72
2017-05-03T08:04:46.514Z,11.63
2017-05-03T08:05:27.106Z,11.63
2017-05-03T08:06:07.690Z,11.69
2017-05-03T08:06:48.321Z,11.66
2017-05-03T08:07:28.909Z,11.75
2017-05-03T08:08:09.510Z,11.72
2017-05-03T08:08:50.113Z,11.73
2017-05-03T08:09:30.710Z,11.83
2017-05-03T08:10:11.376Z,11.81
2017-05-03T08:10:51.954Z,11.83
2017-05-03T08:11:32.815Z,11.78
2017-05-03T08:12:13.341Z,11.77
2017-05-03T08:12:53.936Z,11.83
2017-05-03T08:13:34.508Z,11.8
2017-05-03T08:14:15.210Z,11.84
2017-05-03T08:14:55.792Z,11.84
2017-05-03T08:15:36.406Z,11.88
2017-05-03T08:16:16.992Z,11.86
2017-05-03T08:16:57.583Z,11.83
2017-05-03T08:17:38.180Z,11.94
2017-05-03T08:18:18.795Z,11.95
2017-05-03T08:19:00.120Z,11.95
2017-05-03T08:19:41.117Z,11.95
2017-05-03T08:20:21.725Z,11.99
2017-05-03T08:21:02.360Z,11.91
2017-05-03T08:21:42.946Z,12
2017-05-03T08:22:23.554Z,11.97
2017-05-03T08:23:04.150Z,12
2017-05-03T08:23:44.799Z,11.94
2017-05-03T08:24:25.433Z,11.97
2017-05-03T08:25:05.967Z,11.97
2017-05-03T08:25:46.566Z,11.99
2017-05-03T08:26:27.192Z,12.06
2017-05-03T08:27:07.799Z,11.94
2017-05-03T08:27:48.382Z,11.99
2017-05-03T08:28:28.973Z,11.95
2017-05-03T08:29:09.574Z,12.04
2017-05-03T08:29:50.169Z,11.97
2017-05-03T08:30:30.752Z,12.04
2017-05-03T08:31:11.332Z,12.15
2017-05-03T08:31:51.906Z,12.06
2017-05-03T08:32:32.530Z,12.12
2017-05-03T08:33:13.096Z,12.15
2017-05-03T08:33:53.747Z,12.1
2017-05-03T08:34:34.438Z,12.21
2017-05-03T08:35:15.039Z,12.15
2017-05-03T08:35:55.648Z,12.2
2017-05-03T08:36:36.390Z,12.29
2017-05-03T08:37:16.957Z,12.24
2017-05-03T08:37:57.566Z,12.36
2017-05-03T08:38:38.160Z,12.31
2017-05-03T08:39:18.781Z,12.29
2017-05-03T08:39:59.352Z,12.31
2017-05-03T08:40:39.976Z,12.28
2017-05-03T08:41:20.562Z,12.32
2017-05-03T08:42:01.157Z,12.28
2017-05-03T08:42:41.745Z,12.36
2017-05-03T08:43:22.328Z,12.35
2017-05-03T08:44:02.914Z,12.27
2017-05-03T08:44:43.495Z,12.35
2017-05-03T08:45:24.110Z,12.32
2017-05-03T08:46:04.716Z,12.36
2017-05-03T08:46:45.282Z,12.32